sensor_id;sensor_type;location;lat;lon;timestamp;P1;durP1;ratioP1;P2;durP2;ratioP2
26946;SDS011;14501;52.282;10.560;2022-08-21T00:01:02;3.88;;;1.85;;
26946;SDS011;14501;52.282;10.560;2022-08-21T00:03:31;6.50;;;2.38;;
26946;SDS011;14501;52.282;10.560;2022-08-21T00:05:57;4.03;;;2.25;;
26946;SDS011;14501;52.282;10.560;2022-08-21T00:08:23;6.28;;;1.92;;
26946;SDS011;14501;52.282;10.560;2022-08-21T00:10:49;7.72;;;2.85;;
26946;SDS011;14501;52.282;10.560;2022-08-21T00:13:16;4.55;;;2.30;;
26946;SDS011;14501;52.282;10.560;2022-08-21T00:15:43;5.68;;;2.17;;
26946;SDS011;14501;52.282;10.560;2022-08-21T00:18:09;9.02;;;2.63;;
26946;SDS011;14501;52.282;10.560;2022-08-21T00:20:35;7.25;;;2.20;;
26946;SDS011;14501;52.282;10.560;2022-08-21T00:23:02;6.20;;;2.40;;
26946;SDS011;14501;52.282;10.560;2022-08-21T00:25:28;7.82;;;2.38;;
26946;SDS011;14501;52.282;10.560;2022-08-21T00:27:54;8.52;;;3.13;;
26946;SDS011;14501;52.282;10.560;2022-08-21T00:30:21;5.80;;;2.63;;
26946;SDS011;14501;52.282;10.560;2022-08-21T00:32:48;6.18;;;2.63;;
26946;SDS011;14501;52.282;10.560;2022-08-21T00:35:16;4.22;;;2.38;;
26946;SDS011;14501;52.282;10.560;2022-08-21T00:37:45;7.53;;;2.75;;
26946;SDS011;14501;52.282;10.560;2022-08-21T00:40:12;12.07;;;2.40;;
26946;SDS011;14501;52.282;10.560;2022-08-21T00:42:42;5.45;;;2.45;;
26946;SDS011;14501;52.282;10.560;2022-08-21T00:45:08;3.63;;;2.55;;
26946;SDS011;14501;52.282;10.560;2022-08-21T00:47:35;11.00;;;3.05;;
26946;SDS011;14501;52.282;10.560;2022-08-21T00:50:00;6.57;;;2.53;;
26946;SDS011;14501;52.282;10.560;2022-08-21T00:52:28;6.57;;;3.08;;
26946;SDS011;14501;52.282;10.560;2022-08-21T00:54:56;7.30;;;3.70;;
26946;SDS011;14501;52.282;10.560;2022-08-21T00:57:26;8.70;;;3.25;;
26946;SDS011;14501;52.282;10.560;2022-08-21T00:59:56;8.73;;;2.70;;
26946;SDS011;14501;52.282;10.560;2022-08-21T01:02:24;5.07;;;3.25;;
26946;SDS011;14501;52.282;10.560;2022-08-21T01:04:51;5.88;;;3.53;;
26946;SDS011;14501;52.282;10.560;2022-08-21T01:07:17;8.85;;;3.75;;
26946;SDS011;14501;52.282;10.560;2022-08-21T01:09:43;12.25;;;4.07;;
26946;SDS011;14501;52.282;10.560;2022-08-21T01:12:10;6.72;;;3.80;;
26946;SDS011;14501;52.282;10.560;2022-08-21T01:14:37;10.82;;;3.97;;
26946;SDS011;14501;52.282;10.560;2022-08-21T01:17:05;10.52;;;3.60;;
26946;SDS011;14501;52.282;10.560;2022-08-21T01:19:31;7.78;;;3.80;;
26946;SDS011;14501;52.282;10.560;2022-08-21T01:21:57;13.43;;;3.97;;
26946;SDS011;14501;52.282;10.560;2022-08-21T01:24:24;9.90;;;4.10;;
26946;SDS011;14501;52.282;10.560;2022-08-21T01:26:50;8.35;;;4.38;;
26946;SDS011;14501;52.282;10.560;2022-08-21T01:31:58;9.52;;;3.97;;
26946;SDS011;14501;52.282;10.560;2022-08-21T01:34:28;9.93;;;3.92;;
26946;SDS011;14501;52.282;10.560;2022-08-21T01:36:53;6.47;;;3.97;;
26946;SDS011;14501;52.282;10.560;2022-08-21T01:39:19;6.38;;;3.63;;
26946;SDS011;14501;52.282;10.560;2022-08-21T01:41:45;8.23;;;3.78;;
26946;SDS011;14501;52.282;10.560;2022-08-21T01:44:11;7.00;;;3.33;;
26946;SDS011;14501;52.282;10.560;2022-08-21T01:46:36;8.02;;;3.60;;
26946;SDS011;14501;52.282;10.560;2022-08-21T01:49:03;6.82;;;3.83;;
26946;SDS011;14501;52.282;10.560;2022-08-21T01:51:29;11.68;;;3.80;;
26946;SDS011;14501;52.282;10.560;2022-08-21T01:53:55;12.95;;;4.20;;
26946;SDS011;14501;52.282;10.560;2022-08-21T01:56:20;9.05;;;3.70;;
26946;SDS011;14501;52.282;10.560;2022-08-21T01:58:47;7.93;;;3.88;;
26946;SDS011;14501;52.282;10.560;2022-08-21T02:01:13;9.45;;;3.55;;
26946;SDS011;14501;52.282;10.560;2022-08-21T02:03:39;10.65;;;3.88;;
26946;SDS011;14501;52.282;10.560;2022-08-21T02:06:06;8.65;;;4.25;;
26946;SDS011;14501;52.282;10.560;2022-08-21T02:08:33;8.10;;;3.63;;
26946;SDS011;14501;52.282;10.560;2022-08-21T02:10:59;8.05;;;4.03;;
26946;SDS011;14501;52.282;10.560;2022-08-21T02:13:25;6.10;;;3.35;;
26946;SDS011;14501;52.282;10.560;2022-08-21T02:15:51;7.03;;;3.92;;
26946;SDS011;14501;52.282;10.560;2022-08-21T02:18:16;9.05;;;3.83;;
26946;SDS011;14501;52.282;10.560;2022-08-21T02:20:46;7.40;;;4.43;;
26946;SDS011;14501;52.282;10.560;2022-08-21T02:23:13;4.88;;;3.67;;
26946;SDS011;14501;52.282;10.560;2022-08-21T02:25:40;6.85;;;3.85;;
26946;SDS011;14501;52.282;10.560;2022-08-21T02:28:12;7.90;;;3.78;;
26946;SDS011;14501;52.282;10.560;2022-08-21T02:30:44;8.68;;;3.92;;
26946;SDS011;14501;52.282;10.560;2022-08-21T02:33:11;5.55;;;3.67;;
26946;SDS011;14501;52.282;10.560;2022-08-21T02:35:38;7.35;;;4.20;;
26946;SDS011;14501;52.282;10.560;2022-08-21T02:38:08;8.60;;;4.35;;
26946;SDS011;14501;52.282;10.560;2022-08-21T02:40:37;8.50;;;3.70;;
26946;SDS011;14501;52.282;10.560;2022-08-21T02:43:04;8.73;;;3.60;;
26946;SDS011;14501;52.282;10.560;2022-08-21T02:45:31;5.57;;;3.78;;
26946;SDS011;14501;52.282;10.560;2022-08-21T02:47:59;6.38;;;3.67;;
26946;SDS011;14501;52.282;10.560;2022-08-21T02:50:30;6.32;;;3.55;;
26946;SDS011;14501;52.282;10.560;2022-08-21T02:52:58;6.68;;;3.85;;
26946;SDS011;14501;52.282;10.560;2022-08-21T02:55:25;12.45;;;3.70;;
26946;SDS011;14501;52.282;10.560;2022-08-21T02:57:53;5.65;;;3.65;;
26946;SDS011;14501;52.282;10.560;2022-08-21T03:00:21;7.03;;;3.88;;
26946;SDS011;14501;52.282;10.560;2022-08-21T03:02:49;5.20;;;3.78;;
26946;SDS011;14501;52.282;10.560;2022-08-21T03:05:15;7.20;;;4.20;;
26946;SDS011;14501;52.282;10.560;2022-08-21T03:07:43;7.50;;;4.30;;
26946;SDS011;14501;52.282;10.560;2022-08-21T03:10:11;5.57;;;4.03;;
26946;SDS011;14501;52.282;10.560;2022-08-21T03:12:37;7.85;;;4.00;;
26946;SDS011;14501;52.282;10.560;2022-08-21T03:15:06;6.72;;;4.63;;
26946;SDS011;14501;52.282;10.560;2022-08-21T03:17:35;5.38;;;4.28;;
26946;SDS011;14501;52.282;10.560;2022-08-21T03:20:02;12.10;;;4.05;;
26946;SDS011;14501;52.282;10.560;2022-08-21T03:22:29;9.35;;;4.75;;
26946;SDS011;14501;52.282;10.560;2022-08-21T03:24:55;8.30;;;4.35;;
26946;SDS011;14501;52.282;10.560;2022-08-21T03:27:22;6.05;;;4.50;;
26946;SDS011;14501;52.282;10.560;2022-08-21T03:29:51;7.50;;;3.90;;
26946;SDS011;14501;52.282;10.560;2022-08-21T03:32:18;7.30;;;3.67;;
26946;SDS011;14501;52.282;10.560;2022-08-21T03:34:44;12.55;;;4.10;;
26946;SDS011;14501;52.282;10.560;2022-08-21T03:37:10;5.53;;;3.85;;
26946;SDS011;14501;52.282;10.560;2022-08-21T03:39:37;8.95;;;3.75;;
26946;SDS011;14501;52.282;10.560;2022-08-21T03:42:03;13.23;;;4.15;;
26946;SDS011;14501;52.282;10.560;2022-08-21T03:44:30;10.40;;;4.07;;
26946;SDS011;14501;52.282;10.560;2022-08-21T03:46:56;9.80;;;4.10;;
26946;SDS011;14501;52.282;10.560;2022-08-21T03:49:22;8.63;;;4.03;;
26946;SDS011;14501;52.282;10.560;2022-08-21T03:51:48;6.10;;;3.50;;
26946;SDS011;14501;52.282;10.560;2022-08-21T03:54:14;12.32;;;4.05;;
26946;SDS011;14501;52.282;10.560;2022-08-21T03:56:40;9.05;;;4.07;;
26946;SDS011;14501;52.282;10.560;2022-08-21T03:59:05;6.43;;;3.72;;
26946;SDS011;14501;52.282;10.560;2022-08-21T04:01:31;6.78;;;3.42;;
26946;SDS011;14501;52.282;10.560;2022-08-21T04:03:57;9.05;;;3.60;;
26946;SDS011;14501;52.282;10.560;2022-08-21T04:06:23;7.35;;;3.53;;
26946;SDS011;14501;52.282;10.560;2022-08-21T04:08:51;6.15;;;3.72;;
26946;SDS011;14501;52.282;10.560;2022-08-21T04:11:17;8.05;;;3.90;;
26946;SDS011;14501;52.282;10.560;2022-08-21T04:13:43;6.63;;;4.50;;
26946;SDS011;14501;52.282;10.560;2022-08-21T04:16:08;8.20;;;4.35;;
26946;SDS011;14501;52.282;10.560;2022-08-21T04:18:34;9.82;;;5.22;;
26946;SDS011;14501;52.282;10.560;2022-08-21T04:21:00;15.38;;;6.05;;
26946;SDS011;14501;52.282;10.560;2022-08-21T04:23:27;7.53;;;4.40;;
26946;SDS011;14501;52.282;10.560;2022-08-21T04:25:53;6.55;;;4.65;;
26946;SDS011;14501;52.282;10.560;2022-08-21T04:28:20;9.30;;;3.95;;
26946;SDS011;14501;52.282;10.560;2022-08-21T04:30:46;9.60;;;4.35;;
26946;SDS011;14501;52.282;10.560;2022-08-21T04:33:13;10.27;;;4.10;;
26946;SDS011;14501;52.282;10.560;2022-08-21T04:35:38;9.45;;;3.85;;
26946;SDS011;14501;52.282;10.560;2022-08-21T04:38:06;7.75;;;3.83;;
26946;SDS011;14501;52.282;10.560;2022-08-21T04:40:32;11.10;;;3.53;;
26946;SDS011;14501;52.282;10.560;2022-08-21T04:43:00;10.73;;;3.67;;
26946;SDS011;14501;52.282;10.560;2022-08-21T04:45:33;6.68;;;3.60;;
26946;SDS011;14501;52.282;10.560;2022-08-21T04:48:01;5.68;;;3.33;;
26946;SDS011;14501;52.282;10.560;2022-08-21T04:50:35;12.88;;;3.58;;
26946;SDS011;14501;52.282;10.560;2022-08-21T04:53:42;8.48;;;3.50;;
26946;SDS011;14501;52.282;10.560;2022-08-21T04:56:04;7.13;;;3.45;;
26946;SDS011;14501;52.282;10.560;2022-08-21T04:58:33;6.70;;;3.17;;
26946;SDS011;14501;52.282;10.560;2022-08-21T05:01:01;10.32;;;3.58;;
26946;SDS011;14501;52.282;10.560;2022-08-21T05:03:29;5.63;;;3.05;;
26946;SDS011;14501;52.282;10.560;2022-08-21T05:05:58;6.35;;;3.70;;
26946;SDS011;14501;52.282;10.560;2022-08-21T05:08:25;8.52;;;3.80;;
26946;SDS011;14501;52.282;10.560;2022-08-21T05:10:52;9.48;;;3.45;;
26946;SDS011;14501;52.282;10.560;2022-08-21T05:13:18;5.82;;;2.95;;
26946;SDS011;14501;52.282;10.560;2022-08-21T05:15:45;13.02;;;2.95;;
26946;SDS011;14501;52.282;10.560;2022-08-21T05:18:11;5.00;;;2.78;;
26946;SDS011;14501;52.282;10.560;2022-08-21T05:20:36;6.57;;;3.08;;
26946;SDS011;14501;52.282;10.560;2022-08-21T05:23:06;9.45;;;2.92;;
26946;SDS011;14501;52.282;10.560;2022-08-21T05:25:33;3.28;;;2.55;;
26946;SDS011;14501;52.282;10.560;2022-08-21T05:27:59;7.45;;;2.88;;
26946;SDS011;14501;52.282;10.560;2022-08-21T05:30:24;3.40;;;2.40;;
26946;SDS011;14501;52.282;10.560;2022-08-21T05:32:55;3.70;;;2.35;;
26946;SDS011;14501;52.282;10.560;2022-08-21T05:35:22;4.30;;;2.63;;
26946;SDS011;14501;52.282;10.560;2022-08-21T05:37:47;9.90;;;2.47;;
26946;SDS011;14501;52.282;10.560;2022-08-21T05:40:13;7.10;;;2.90;;
26946;SDS011;14501;52.282;10.560;2022-08-21T05:42:39;4.43;;;2.58;;
26946;SDS011;14501;52.282;10.560;2022-08-21T05:45:04;8.25;;;2.30;;
26946;SDS011;14501;52.282;10.560;2022-08-21T05:47:30;5.30;;;2.50;;
26946;SDS011;14501;52.282;10.560;2022-08-21T05:49:56;5.53;;;2.25;;
26946;SDS011;14501;52.282;10.560;2022-08-21T05:52:22;6.53;;;2.15;;
26946;SDS011;14501;52.282;10.560;2022-08-21T05:54:48;7.72;;;1.85;;
26946;SDS011;14501;52.282;10.560;2022-08-21T05:57:14;5.68;;;2.17;;
26946;SDS011;14501;52.282;10.560;2022-08-21T05:59:40;4.45;;;2.25;;
26946;SDS011;14501;52.282;10.560;2022-08-21T06:02:06;4.10;;;2.10;;
26946;SDS011;14501;52.282;10.560;2022-08-21T06:04:37;4.70;;;2.20;;
26946;SDS011;14501;52.282;10.560;2022-08-21T06:07:04;5.82;;;1.75;;
26946;SDS011;14501;52.282;10.560;2022-08-21T06:09:30;6.95;;;2.08;;
26946;SDS011;14501;52.282;10.560;2022-08-21T06:11:55;4.00;;;1.52;;
26946;SDS011;14501;52.282;10.560;2022-08-21T06:14:21;5.28;;;1.83;;
26946;SDS011;14501;52.282;10.560;2022-08-21T06:16:47;7.88;;;1.90;;
26946;SDS011;14501;52.282;10.560;2022-08-21T06:19:12;3.63;;;1.77;;
26946;SDS011;14501;52.282;10.560;2022-08-21T06:21:38;3.35;;;1.73;;
26946;SDS011;14501;52.282;10.560;2022-08-21T06:24:04;2.92;;;1.60;;
26946;SDS011;14501;52.282;10.560;2022-08-21T06:26:31;3.95;;;1.85;;
26946;SDS011;14501;52.282;10.560;2022-08-21T06:28:57;3.65;;;1.80;;
26946;SDS011;14501;52.282;10.560;2022-08-21T06:31:24;4.65;;;1.90;;
26946;SDS011;14501;52.282;10.560;2022-08-21T06:33:51;3.92;;;1.73;;
26946;SDS011;14501;52.282;10.560;2022-08-21T06:36:17;3.75;;;1.75;;
26946;SDS011;14501;52.282;10.560;2022-08-21T06:38:43;1.88;;;1.75;;
26946;SDS011;14501;52.282;10.560;2022-08-21T06:41:09;3.03;;;1.88;;
26946;SDS011;14501;52.282;10.560;2022-08-21T06:43:35;4.18;;;1.80;;
26946;SDS011;14501;52.282;10.560;2022-08-21T06:46:01;5.10;;;1.98;;
26946;SDS011;14501;52.282;10.560;2022-08-21T06:48:27;3.90;;;1.60;;
26946;SDS011;14501;52.282;10.560;2022-08-21T06:50:54;3.63;;;1.95;;
26946;SDS011;14501;52.282;10.560;2022-08-21T06:53:21;3.90;;;1.77;;
26946;SDS011;14501;52.282;10.560;2022-08-21T06:55:47;5.07;;;1.83;;
26946;SDS011;14501;52.282;10.560;2022-08-21T06:58:13;5.68;;;1.98;;
26946;SDS011;14501;52.282;10.560;2022-08-21T07:00:40;5.10;;;2.35;;
26946;SDS011;14501;52.282;10.560;2022-08-21T07:03:43;5.00;;;1.85;;
26946;SDS011;14501;52.282;10.560;2022-08-21T07:06:03;4.97;;;2.05;;
26946;SDS011;14501;52.282;10.560;2022-08-21T07:08:30;6.15;;;1.85;;
26946;SDS011;14501;52.282;10.560;2022-08-21T07:10:57;5.97;;;2.03;;
26946;SDS011;14501;52.282;10.560;2022-08-21T07:13:24;2.45;;;1.45;;
26946;SDS011;14501;52.282;10.560;2022-08-21T07:15:50;2.03;;;1.50;;
26946;SDS011;14501;52.282;10.560;2022-08-21T07:18:16;7.50;;;1.70;;
26946;SDS011;14501;52.282;10.560;2022-08-21T07:20:42;4.38;;;2.22;;
26946;SDS011;14501;52.282;10.560;2022-08-21T07:23:10;5.07;;;1.85;;
26946;SDS011;14501;52.282;10.560;2022-08-21T07:25:38;2.25;;;1.40;;
26946;SDS011;14501;52.282;10.560;2022-08-21T07:28:04;4.10;;;1.73;;
26946;SDS011;14501;52.282;10.560;2022-08-21T07:30:30;4.63;;;1.90;;
26946;SDS011;14501;52.282;10.560;2022-08-21T07:32:56;4.75;;;1.50;;
26946;SDS011;14501;52.282;10.560;2022-08-21T07:35:22;3.33;;;1.90;;
26946;SDS011;14501;52.282;10.560;2022-08-21T07:37:47;2.47;;;1.48;;
26946;SDS011;14501;52.282;10.560;2022-08-21T07:40:14;4.10;;;1.60;;
26946;SDS011;14501;52.282;10.560;2022-08-21T07:42:41;3.13;;;1.73;;
26946;SDS011;14501;52.282;10.560;2022-08-21T07:45:08;5.38;;;1.95;;
26946;SDS011;14501;52.282;10.560;2022-08-21T07:47:34;3.47;;;1.80;;
26946;SDS011;14501;52.282;10.560;2022-08-21T07:50:00;3.13;;;1.65;;
26946;SDS011;14501;52.282;10.560;2022-08-21T07:52:25;3.60;;;1.52;;
26946;SDS011;14501;52.282;10.560;2022-08-21T07:54:51;2.67;;;1.63;;
26946;SDS011;14501;52.282;10.560;2022-08-21T07:57:18;6.80;;;1.80;;
26946;SDS011;14501;52.282;10.560;2022-08-21T07:59:43;4.65;;;1.70;;
26946;SDS011;14501;52.282;10.560;2022-08-21T08:02:09;3.50;;;1.40;;
26946;SDS011;14501;52.282;10.560;2022-08-21T08:04:34;5.18;;;1.30;;
26946;SDS011;14501;52.282;10.560;2022-08-21T08:07:00;4.95;;;1.77;;
26946;SDS011;14501;52.282;10.560;2022-08-21T08:09:26;4.15;;;1.92;;
26946;SDS011;14501;52.282;10.560;2022-08-21T08:11:51;5.15;;;2.45;;
26946;SDS011;14501;52.282;10.560;2022-08-21T08:14:17;4.10;;;1.63;;
26946;SDS011;14501;52.282;10.560;2022-08-21T08:16:42;4.82;;;1.27;;
26946;SDS011;14501;52.282;10.560;2022-08-21T08:19:08;4.38;;;1.80;;
26946;SDS011;14501;52.282;10.560;2022-08-21T08:21:34;3.80;;;1.55;;
26946;SDS011;14501;52.282;10.560;2022-08-21T08:24:01;5.03;;;1.70;;
26946;SDS011;14501;52.282;10.560;2022-08-21T08:26:27;4.10;;;1.33;;
26946;SDS011;14501;52.282;10.560;2022-08-21T08:28:53;5.68;;;1.52;;
26946;SDS011;14501;52.282;10.560;2022-08-21T08:31:18;5.47;;;1.48;;
26946;SDS011;14501;52.282;10.560;2022-08-21T08:33:44;2.03;;;1.33;;
26946;SDS011;14501;52.282;10.560;2022-08-21T08:36:16;3.70;;;1.65;;
26946;SDS011;14501;52.282;10.560;2022-08-21T08:38:43;6.53;;;1.80;;
26946;SDS011;14501;52.282;10.560;2022-08-21T08:41:14;4.15;;;1.77;;
26946;SDS011;14501;52.282;10.560;2022-08-21T08:43:53;5.70;;;1.90;;
26946;SDS011;14501;52.282;10.560;2022-08-21T08:46:31;4.40;;;1.85;;
26946;SDS011;14501;52.282;10.560;2022-08-21T08:49:06;7.25;;;2.45;;
26946;SDS011;14501;52.282;10.560;2022-08-21T08:51:44;5.10;;;1.92;;
26946;SDS011;14501;52.282;10.560;2022-08-21T08:54:17;5.10;;;2.33;;
26946;SDS011;14501;52.282;10.560;2022-08-21T08:56:56;5.10;;;1.75;;
26946;SDS011;14501;52.282;10.560;2022-08-21T08:59:29;4.15;;;1.95;;
26946;SDS011;14501;52.282;10.560;2022-08-21T09:02:01;4.93;;;1.77;;
26946;SDS011;14501;52.282;10.560;2022-08-21T09:04:27;3.35;;;1.85;;
26946;SDS011;14501;52.282;10.560;2022-08-21T09:12:36;4.32;;;1.75;;
26946;SDS011;14501;52.282;10.560;2022-08-21T09:15:36;4.97;;;2.63;;
26946;SDS011;14501;52.282;10.560;2022-08-21T09:18:24;8.10;;;2.33;;
26946;SDS011;14501;52.282;10.560;2022-08-21T09:24:02;17.55;;;3.63;;
26946;SDS011;14501;52.282;10.560;2022-08-21T09:29:14;6.30;;;2.65;;
26946;SDS011;14501;52.282;10.560;2022-08-21T09:31:45;8.87;;;2.40;;
26946;SDS011;14501;52.282;10.560;2022-08-21T09:34:11;5.80;;;2.22;;
26946;SDS011;14501;52.282;10.560;2022-08-21T09:36:45;5.57;;;2.05;;
26946;SDS011;14501;52.282;10.560;2022-08-21T09:39:22;4.93;;;1.98;;
26946;SDS011;14501;52.282;10.560;2022-08-21T09:41:55;7.85;;;2.40;;
26946;SDS011;14501;52.282;10.560;2022-08-21T09:44:33;6.43;;;2.25;;
26946;SDS011;14501;52.282;10.560;2022-08-21T09:47:04;7.50;;;2.28;;
26946;SDS011;14501;52.282;10.560;2022-08-21T09:49:35;8.65;;;2.65;;
26946;SDS011;14501;52.282;10.560;2022-08-21T09:52:03;9.15;;;2.60;;
26946;SDS011;14501;52.282;10.560;2022-08-21T09:54:39;7.32;;;2.60;;
26946;SDS011;14501;52.282;10.560;2022-08-21T09:59:52;7.43;;;2.30;;
26946;SDS011;14501;52.282;10.560;2022-08-21T10:04:52;6.55;;;2.67;;
26946;SDS011;14501;52.282;10.560;2022-08-21T10:07:27;6.60;;;2.38;;
26946;SDS011;14501;52.282;10.560;2022-08-21T10:09:59;11.00;;;2.55;;
26946;SDS011;14501;52.282;10.560;2022-08-21T10:12:41;11.02;;;2.65;;
26946;SDS011;14501;52.282;10.560;2022-08-21T10:22:30;6.78;;;2.60;;
26946;SDS011;14501;52.282;10.560;2022-08-21T10:27:53;6.90;;;2.53;;
26946;SDS011;14501;52.282;10.560;2022-08-21T10:30:48;8.38;;;2.45;;
26946;SDS011;14501;52.282;10.560;2022-08-21T10:38:46;6.97;;;2.65;;
26946;SDS011;14501;52.282;10.560;2022-08-21T10:47:24;4.85;;;2.30;;
26946;SDS011;14501;52.282;10.560;2022-08-21T10:52:30;9.70;;;2.55;;
26946;SDS011;14501;52.282;10.560;2022-08-21T10:55:25;10.13;;;2.92;;
26946;SDS011;14501;52.282;10.560;2022-08-21T10:57:59;7.00;;;2.40;;
26946;SDS011;14501;52.282;10.560;2022-08-21T11:00:32;10.20;;;3.00;;
26946;SDS011;14501;52.282;10.560;2022-08-21T11:03:21;7.75;;;2.65;;
26946;SDS011;14501;52.282;10.560;2022-08-21T11:06:12;7.43;;;2.65;;
26946;SDS011;14501;52.282;10.560;2022-08-21T11:08:39;10.55;;;2.55;;
26946;SDS011;14501;52.282;10.560;2022-08-21T11:13:49;5.15;;;2.20;;
26946;SDS011;14501;52.282;10.560;2022-08-21T11:16:33;8.57;;;2.55;;
26946;SDS011;14501;52.282;10.560;2022-08-21T11:27:27;12.13;;;2.17;;
26946;SDS011;14501;52.282;10.560;2022-08-21T11:30:04;5.97;;;2.40;;
26946;SDS011;14501;52.282;10.560;2022-08-21T11:48:52;5.60;;;1.92;;
26946;SDS011;14501;52.282;10.560;2022-08-21T11:51:42;8.55;;;2.30;;
26946;SDS011;14501;52.282;10.560;2022-08-21T11:54:24;9.27;;;2.30;;
26946;SDS011;14501;52.282;10.560;2022-08-21T11:56:57;10.25;;;3.00;;
26946;SDS011;14501;52.282;10.560;2022-08-21T11:59:53;3.95;;;1.90;;
26946;SDS011;14501;52.282;10.560;2022-08-21T12:02:18;5.25;;;2.15;;
26946;SDS011;14501;52.282;10.560;2022-08-21T12:04:53;6.72;;;1.90;;
26946;SDS011;14501;52.282;10.560;2022-08-21T12:07:32;8.73;;;2.72;;
26946;SDS011;14501;52.282;10.560;2022-08-21T12:12:34;6.72;;;2.03;;
26946;SDS011;14501;52.282;10.560;2022-08-21T12:15:16;6.55;;;1.85;;
26946;SDS011;14501;52.282;10.560;2022-08-21T12:26:10;4.40;;;1.70;;
26946;SDS011;14501;52.282;10.560;2022-08-21T12:28:28;6.57;;;1.88;;
26946;SDS011;14501;52.282;10.560;2022-08-21T12:30:56;6.60;;;1.85;;
26946;SDS011;14501;52.282;10.560;2022-08-21T12:33:40;4.53;;;2.05;;
26946;SDS011;14501;52.282;10.560;2022-08-21T12:41:20;4.45;;;1.75;;
26946;SDS011;14501;52.282;10.560;2022-08-21T12:44:04;5.10;;;1.90;;
26946;SDS011;14501;52.282;10.560;2022-08-21T12:46:42;3.92;;;1.65;;
26946;SDS011;14501;52.282;10.560;2022-08-21T12:49:29;3.60;;;1.58;;
26946;SDS011;14501;52.282;10.560;2022-08-21T12:54:49;5.15;;;1.92;;
26946;SDS011;14501;52.282;10.560;2022-08-21T12:57:25;3.53;;;1.45;;
26946;SDS011;14501;52.282;10.560;2022-08-21T12:59:54;3.25;;;1.33;;
26946;SDS011;14501;52.282;10.560;2022-08-21T13:02:32;4.72;;;1.70;;
26946;SDS011;14501;52.282;10.560;2022-08-21T13:05:03;3.10;;;1.13;;
26946;SDS011;14501;52.282;10.560;2022-08-21T13:07:31;5.45;;;1.90;;
26946;SDS011;14501;52.282;10.560;2022-08-21T13:10:19;3.90;;;1.42;;
26946;SDS011;14501;52.282;10.560;2022-08-21T13:12:48;1.90;;;1.20;;
26946;SDS011;14501;52.282;10.560;2022-08-21T13:15:14;3.58;;;1.27;;
26946;SDS011;14501;52.282;10.560;2022-08-21T13:17:47;4.80;;;1.38;;
26946;SDS011;14501;52.282;10.560;2022-08-21T13:20:23;4.78;;;1.30;;
26946;SDS011;14501;52.282;10.560;2022-08-21T13:22:50;3.03;;;1.45;;
26946;SDS011;14501;52.282;10.560;2022-08-21T13:25:17;8.82;;;1.50;;
26946;SDS011;14501;52.282;10.560;2022-08-21T13:30:46;4.40;;;1.30;;
26946;SDS011;14501;52.282;10.560;2022-08-21T13:33:15;2.47;;;1.10;;
26946;SDS011;14501;52.282;10.560;2022-08-21T13:38:25;4.63;;;1.40;;
26946;SDS011;14501;52.282;10.560;2022-08-21T13:40:55;4.88;;;1.65;;
26946;SDS011;14501;52.282;10.560;2022-08-21T13:43:30;4.68;;;1.52;;
26946;SDS011;14501;52.282;10.560;2022-08-21T13:45:58;3.78;;;1.40;;
26946;SDS011;14501;52.282;10.560;2022-08-21T13:48:28;3.53;;;1.33;;
26946;SDS011;14501;52.282;10.560;2022-08-21T13:50:56;4.30;;;1.40;;
26946;SDS011;14501;52.282;10.560;2022-08-21T13:55:52;5.03;;;1.88;;
26946;SDS011;14501;52.282;10.560;2022-08-21T13:58:24;1.83;;;0.98;;
26946;SDS011;14501;52.282;10.560;2022-08-21T14:03:50;2.47;;;1.13;;
26946;SDS011;14501;52.282;10.560;2022-08-21T14:06:20;4.47;;;1.40;;
26946;SDS011;14501;52.282;10.560;2022-08-21T14:08:49;2.30;;;1.30;;
26946;SDS011;14501;52.282;10.560;2022-08-21T14:11:18;4.28;;;1.42;;
26946;SDS011;14501;52.282;10.560;2022-08-21T14:14:07;6.47;;;1.27;;
26946;SDS011;14501;52.282;10.560;2022-08-21T14:16:45;3.95;;;1.45;;
26946;SDS011;14501;52.282;10.560;2022-08-21T14:19:26;5.97;;;1.52;;
26946;SDS011;14501;52.282;10.560;2022-08-21T14:21:53;5.32;;;1.70;;
26946;SDS011;14501;52.282;10.560;2022-08-21T14:26:55;2.85;;;1.30;;
26946;SDS011;14501;52.282;10.560;2022-08-21T14:29:22;6.47;;;1.58;;
26946;SDS011;14501;52.282;10.560;2022-08-21T14:31:53;3.17;;;1.48;;
26946;SDS011;14501;52.282;10.560;2022-08-21T14:34:24;4.90;;;1.30;;
26946;SDS011;14501;52.282;10.560;2022-08-21T14:36:52;2.33;;;1.40;;
26946;SDS011;14501;52.282;10.560;2022-08-21T14:39:18;3.80;;;1.40;;
26946;SDS011;14501;52.282;10.560;2022-08-21T14:41:44;4.93;;;1.40;;
26946;SDS011;14501;52.282;10.560;2022-08-21T14:44:17;2.63;;;1.52;;
26946;SDS011;14501;52.282;10.560;2022-08-21T14:46:44;4.47;;;1.27;;
26946;SDS011;14501;52.282;10.560;2022-08-21T14:49:10;5.65;;;1.55;;
26946;SDS011;14501;52.282;10.560;2022-08-21T14:51:36;3.28;;;1.38;;
26946;SDS011;14501;52.282;10.560;2022-08-21T14:54:03;3.10;;;1.23;;
26946;SDS011;14501;52.282;10.560;2022-08-21T14:56:30;3.90;;;1.45;;
26946;SDS011;14501;52.282;10.560;2022-08-21T14:58:58;4.55;;;1.40;;
26946;SDS011;14501;52.282;10.560;2022-08-21T15:01:28;2.17;;;1.30;;
26946;SDS011;14501;52.282;10.560;2022-08-21T15:03:54;3.40;;;1.17;;
26946;SDS011;14501;52.282;10.560;2022-08-21T15:06:19;3.40;;;1.30;;
26946;SDS011;14501;52.282;10.560;2022-08-21T15:08:46;5.75;;;1.90;;
26946;SDS011;14501;52.282;10.560;2022-08-21T15:11:19;3.58;;;1.30;;
26946;SDS011;14501;52.282;10.560;2022-08-21T15:16:12;3.35;;;1.20;;
26946;SDS011;14501;52.282;10.560;2022-08-21T15:18:38;1.63;;;0.98;;
26946;SDS011;14501;52.282;10.560;2022-08-21T15:21:04;2.55;;;0.95;;
26946;SDS011;14501;52.282;10.560;2022-08-21T15:23:30;2.95;;;1.15;;
26946;SDS011;14501;52.282;10.560;2022-08-21T15:25:56;3.15;;;1.20;;
26946;SDS011;14501;52.282;10.560;2022-08-21T15:28:25;3.88;;;1.40;;
26946;SDS011;14501;52.282;10.560;2022-08-21T15:30:51;4.32;;;1.40;;
26946;SDS011;14501;52.282;10.560;2022-08-21T15:33:17;3.05;;;1.40;;
26946;SDS011;14501;52.282;10.560;2022-08-21T15:35:43;6.05;;;1.50;;
26946;SDS011;14501;52.282;10.560;2022-08-21T15:38:11;3.17;;;1.15;;
26946;SDS011;14501;52.282;10.560;2022-08-21T15:40:37;5.93;;;1.30;;
26946;SDS011;14501;52.282;10.560;2022-08-21T15:43:04;4.70;;;1.40;;
26946;SDS011;14501;52.282;10.560;2022-08-21T15:45:30;6.15;;;1.77;;
26946;SDS011;14501;52.282;10.560;2022-08-21T15:47:57;8.07;;;1.55;;
26946;SDS011;14501;52.282;10.560;2022-08-21T15:50:24;4.47;;;1.77;;
26946;SDS011;14501;52.282;10.560;2022-08-21T15:52:51;3.45;;;1.20;;
26946;SDS011;14501;52.282;10.560;2022-08-21T15:55:17;4.32;;;1.50;;
26946;SDS011;14501;52.282;10.560;2022-08-21T15:57:45;3.55;;;1.40;;
26946;SDS011;14501;52.282;10.560;2022-08-21T16:00:13;4.32;;;1.50;;
26946;SDS011;14501;52.282;10.560;2022-08-21T16:02:46;3.85;;;1.05;;
26946;SDS011;14501;52.282;10.560;2022-08-21T16:05:14;3.92;;;1.48;;
26946;SDS011;14501;52.282;10.560;2022-08-21T16:07:42;4.13;;;1.50;;
26946;SDS011;14501;52.282;10.560;2022-08-21T16:10:08;3.97;;;1.67;;
26946;SDS011;14501;52.282;10.560;2022-08-21T16:12:36;4.72;;;1.20;;
26946;SDS011;14501;52.282;10.560;2022-08-21T16:15:05;6.13;;;4.50;;
26946;SDS011;14501;52.282;10.560;2022-08-21T16:17:34;10.93;;;3.97;;
26946;SDS011;14501;52.282;10.560;2022-08-21T16:20:03;6.43;;;3.78;;
26946;SDS011;14501;52.282;10.560;2022-08-21T16:22:31;8.48;;;3.58;;
26946;SDS011;14501;52.282;10.560;2022-08-21T16:24:57;5.50;;;2.33;;
26946;SDS011;14501;52.282;10.560;2022-08-21T16:27:23;8.25;;;1.88;;
26946;SDS011;14501;52.282;10.560;2022-08-21T16:29:48;5.95;;;1.92;;